ESOE/ORB METAR and TAF weather

Enter ICAO airport designator
Station Type Date Time Source
ESOE METAR 2019/04/25 21:50 UTC NOAA

ESOE 252150Z AUTO 07005KT 9999 NCD 12/03 Q1017


Station Type Date Time Source
ESOE Decoded METAR 2019/04/25 21:50 UTC NOAA

Orebro Private , Sweden (ESOE) 59-14N 015-03E
Apr 25, 2019 - 05:50 PM EDT / 2019.04.25 2150 UTC
Wind: from the ENE (070 degrees) at 6 MPH (5 KT):0
Visibility: greater than 7 mile(s):0
Temperature: 53 F (12 C)
Dew Point: 37 F (3 C)
Relative Humidity: 54%
Pressure (altimeter): 30.03 in. Hg (1017 hPa)
ob: ESOE 252150Z AUTO 07005KT 9999 NCD 12/03 Q1017
cycle: 22

Station Type Date Time Source
ESOE TAF 2016/03/16 04:36 UTC NOAA

TAF TAF ESOE 160330Z 1604/1624 23005KT 9000 BR NSC PROB40 1604/1607 1200 BR

Example: see airport list